Contact Info

Augusta Flying Club, Inc

KDNL 221053Z AUTO VRB03KT 10SM CLR 26/21 A3002 RMK AO2 SLP159 T02560206 $


TAF KDNL 221131Z 2212/2312 22005KT P6SM SCT250 FM221600 23010KT P6SM SCT060 FM230100 19007KT P6SM BKN100

info@augustaflyingclub.com

Send us a message